createdAt,value
2023-05-19T00:02:26.210Z,81.09
2023-05-19T00:07:31.375Z,80.33
2023-05-19T00:12:33.322Z,80.44
2023-05-19T00:17:35.154Z,80.52
2023-05-19T00:22:37.109Z,79.86
2023-05-19T00:27:38.801Z,80.68
2023-05-19T00:32:40.751Z,79.88
2023-05-19T00:37:42.473Z,80.51
2023-05-19T00:42:44.141Z,82.75
2023-05-19T00:47:45.947Z,84.64
2023-05-19T00:52:47.690Z,84.25
2023-05-19T00:57:49.919Z,84.83
2023-05-19T01:02:51.828Z,84.17
2023-05-19T01:07:55.610Z,86.18
2023-05-19T01:12:57.432Z,85.00
2023-05-19T01:18:08.286Z,86.16
2023-05-19T01:23:21.558Z,86.79
2023-05-19T01:28:49.147Z,87.91
2023-05-19T01:33:53.263Z,86.45
2023-05-19T01:38:58.552Z,87.34
2023-05-19T01:44:00.769Z,89.07
2023-05-19T01:49:03.122Z,90.32
2023-05-19T01:54:04.833Z,90.00
2023-05-19T01:59:23.949Z,91.77
2023-05-19T02:04:51.182Z,91.32
2023-05-19T02:10:30.974Z,91.88
2023-05-19T02:15:42.319Z,92.05
2023-05-19T02:20:44.152Z,92.70
2023-05-19T02:25:45.883Z,92.32
2023-05-19T02:30:47.583Z,92.21
2023-05-19T02:35:49.303Z,92.21
2023-05-19T02:40:52.402Z,92.37
2023-05-19T02:45:54.266Z,93.45
2023-05-19T02:50:55.988Z,93.89
2023-05-19T02:55:57.671Z,95.73
2023-05-19T03:00:59.328Z,97.17
2023-05-19T03:06:01.963Z,95.89
2023-05-19T03:11:03.862Z,96.02
2023-05-19T03:16:08.113Z,96.49
2023-05-19T03:21:10.201Z,97.42
2023-05-19T03:26:11.886Z,97.40
2023-05-19T03:31:13.644Z,98.23
2023-05-19T03:36:16.318Z,98.25
2023-05-19T03:41:18.071Z,96.07
2023-05-19T03:46:19.980Z,95.86
2023-05-19T03:51:21.677Z,97.69
2023-05-19T03:56:27.785Z,96.46
2023-05-19T04:01:29.603Z,94.35
2023-05-19T04:06:33.968Z,94.58
2023-05-19T04:11:36.655Z,95.57
2023-05-19T04:16:38.518Z,93.71
2023-05-19T04:21:40.192Z,92.11
2023-05-19T04:26:45.951Z,93.06
2023-05-19T04:31:49.114Z,91.00
2023-05-19T04:36:53.249Z,89.79
2023-05-19T04:41:56.729Z,89.62
2023-05-19T04:47:00.234Z,88.95
2023-05-19T04:52:02.079Z,87.87
2023-05-19T04:57:05.843Z,87.17
2023-05-19T05:02:11.225Z,84.51
2023-05-19T05:07:12.989Z,83.39
2023-05-19T05:12:15.589Z,80.23
2023-05-19T05:17:17.734Z,77.44
2023-05-19T05:22:19.890Z,76.59
2023-05-19T05:27:21.662Z,76.77
2023-05-19T05:32:23.635Z,76.87
2023-05-19T05:37:25.628Z,78.04
2023-05-19T05:42:29.699Z,76.98
2023-05-19T05:47:32.579Z,76.28
2023-05-19T05:52:36.641Z,76.25
2023-05-19T05:57:41.939Z,74.14
2023-05-19T06:02:47.369Z,74.07
2023-05-19T06:07:50.096Z,74.59
2023-05-19T06:12:56.492Z,73.32
2023-05-19T06:18:00.236Z,73.08
2023-05-19T06:23:02.932Z,69.74
2023-05-19T06:28:04.996Z,66.15
2023-05-19T06:33:07.322Z,62.47
2023-05-19T06:38:09.224Z,64.31
2023-05-19T06:43:11.461Z,65.64
2023-05-19T06:48:35.157Z,65.18
2023-05-19T06:53:38.212Z,66.25
2023-05-19T06:58:43.757Z,63.34
2023-05-19T07:03:46.923Z,60.83
2023-05-19T07:08:50.113Z,66.29
2023-05-19T07:13:52.819Z,65.75
2023-05-19T07:19:00.522Z,64.55
2023-05-19T07:24:02.278Z,63.46
2023-05-19T07:29:04.310Z,59.73
2023-05-19T07:34:06.080Z,61.02
2023-05-19T07:39:07.828Z,57.12
2023-05-19T07:44:10.449Z,53.84
2023-05-19T07:49:12.132Z,45.14
2023-05-19T07:54:13.779Z,46.49
2023-05-19T07:59:16.086Z,49.78
2023-05-19T08:04:17.933Z,51.32
2023-05-19T08:09:20.217Z,52.58
2023-05-19T08:14:22.930Z,51.60
2023-05-19T08:19:24.755Z,48.29
2023-05-19T08:24:26.669Z,49.17
2023-05-19T08:29:28.334Z,49.52
2023-05-19T08:34:29.987Z,44.83
2023-05-19T08:39:34.226Z,43.70
2023-05-19T08:44:37.623Z,43.91
2023-05-19T08:49:50.592Z,45.19
2023-05-19T08:55:21.849Z,45.43
2023-05-19T09:00:23.964Z,47.72
2023-05-19T09:05:25.746Z,49.23
2023-05-19T09:10:29.120Z,50.54
2023-05-19T09:15:31.969Z,49.62
2023-05-19T09:20:37.289Z,51.12
2023-05-19T09:25:50.276Z,56.11
2023-05-19T09:31:01.540Z,52.03
2023-05-19T09:36:06.150Z,52.34
2023-05-19T09:41:09.152Z,50.93
2023-05-19T09:46:14.770Z,48.39
2023-05-19T09:51:17.584Z,47.88
2023-05-19T09:56:23.813Z,47.82
2023-05-19T10:01:26.691Z,51.13
2023-05-19T10:06:28.702Z,47.33
2023-05-19T10:11:30.823Z,49.01
2023-05-19T10:16:33.798Z,48.24
2023-05-19T10:21:35.495Z,48.99
2023-05-19T10:26:39.072Z,46.00
2023-05-19T10:31:41.447Z,51.75
2023-05-19T10:36:46.468Z,50.86
2023-05-19T10:42:23.926Z,52.78
2023-05-19T10:47:26.323Z,45.33
2023-05-19T10:52:30.854Z,49.79
2023-05-19T10:57:33.346Z,48.84
2023-05-19T11:02:42.348Z,52.15
2023-05-19T11:07:55.338Z,50.63
2023-05-19T11:12:58.415Z,50.01
2023-05-19T11:18:01.951Z,51.43
2023-05-19T11:23:03.631Z,48.48
2023-05-19T11:28:05.888Z,48.71
2023-05-19T11:33:08.235Z,53.07
2023-05-19T11:38:11.241Z,52.10
2023-05-19T11:43:12.904Z,49.83
2023-05-19T11:48:16.104Z,49.82
2023-05-19T11:53:19.847Z,50.04
2023-05-19T11:58:27.849Z,53.23
2023-05-19T12:03:29.885Z,54.30
2023-05-19T12:08:31.810Z,51.00
2023-05-19T12:13:33.659Z,50.09
2023-05-19T12:18:39.224Z,52.96
2023-05-19T12:23:41.839Z,51.16
2023-05-19T12:28:45.631Z,52.91
2023-05-19T12:33:52.618Z,52.50
2023-05-19T12:38:55.612Z,57.89
2023-05-19T12:43:57.256Z,58.49
2023-05-19T12:49:01.008Z,56.43
2023-05-19T12:54:04.676Z,58.87
2023-05-19T12:59:06.401Z,58.39
2023-05-19T13:04:08.340Z,58.95
2023-05-19T13:09:10.879Z,57.14
2023-05-19T13:14:12.638Z,57.92
2023-05-19T13:19:25.536Z,54.35
2023-05-19T13:24:27.895Z,58.99
2023-05-19T13:29:29.598Z,59.60
2023-05-19T13:34:31.350Z,61.84
2023-05-19T13:39:33.438Z,61.28
2023-05-19T13:44:35.176Z,61.74
2023-05-19T13:49:36.872Z,61.28
2023-05-19T13:54:38.543Z,60.43
2023-05-19T13:59:52.902Z,59.59
2023-05-19T14:05:02.798Z,61.10
2023-05-19T14:10:07.041Z,61.33
2023-05-19T14:15:11.451Z,63.65
2023-05-19T14:20:13.363Z,63.53
2023-05-19T14:25:15.086Z,64.13
2023-05-19T14:30:16.744Z,65.38
2023-05-19T14:35:18.444Z,66.08
2023-05-19T14:40:20.368Z,65.88
2023-05-19T14:45:22.181Z,65.57
2023-05-19T14:50:23.897Z,65.74
2023-05-19T14:55:25.679Z,65.92
2023-05-19T15:00:27.384Z,65.78
2023-05-19T15:05:29.054Z,64.97
2023-05-19T15:10:31.084Z,64.14
2023-05-19T15:15:32.876Z,63.85
2023-05-19T15:20:34.922Z,65.75
2023-05-19T15:25:37.279Z,65.59
2023-05-19T15:30:39.962Z,66.62
2023-05-19T15:35:41.959Z,67.87
2023-05-19T15:40:43.664Z,68.92
2023-05-19T15:45:45.395Z,69.81
2023-05-19T15:50:47.155Z,70.17
2023-05-19T15:55:48.842Z,69.54
2023-05-19T16:00:50.657Z,70.35
2023-05-19T16:05:53.194Z,69.27
2023-05-19T16:10:55.297Z,71.93
2023-05-19T16:15:56.976Z,72.85
2023-05-19T16:20:58.636Z,72.11
2023-05-19T16:26:00.457Z,72.89
2023-05-19T16:31:02.118Z,71.50
2023-05-19T16:36:03.999Z,72.91
2023-05-19T16:41:06.883Z,73.13
2023-05-19T16:46:09.951Z,72.95
2023-05-19T16:51:11.722Z,72.97
2023-05-19T16:56:13.380Z,74.46
2023-05-19T17:01:16.230Z,75.01
2023-05-19T17:06:17.887Z,74.54
2023-05-19T17:11:19.537Z,74.21
2023-05-19T17:16:21.422Z,73.65
2023-05-19T17:21:23.087Z,75.59
2023-05-19T17:26:24.749Z,74.81
2023-05-19T17:31:26.449Z,75.20
2023-05-19T17:36:28.429Z,75.66
2023-05-19T17:41:30.251Z,75.90
2023-05-19T17:46:34.728Z,76.07
2023-05-19T17:51:36.961Z,76.61
2023-05-19T17:56:42.186Z,76.47
2023-05-19T18:01:44.350Z,76.27
2023-05-19T18:06:46.615Z,76.64
2023-05-19T18:11:48.338Z,77.01
2023-05-19T18:16:50.131Z,76.76
2023-05-19T18:21:51.860Z,77.77
2023-05-19T18:26:53.506Z,77.35
2023-05-19T18:31:55.332Z,77.77
2023-05-19T18:36:57.025Z,77.92
2023-05-19T18:41:58.937Z,77.78
2023-05-19T18:47:01.137Z,78.23
2023-05-19T18:52:02.867Z,77.89
2023-05-19T18:57:05.103Z,78.72
2023-05-19T19:02:06.926Z,78.96
2023-05-19T19:07:08.614Z,78.80
2023-05-19T19:12:10.829Z,78.93
2023-05-19T19:17:12.749Z,78.98
2023-05-19T19:22:14.528Z,79.70
2023-05-19T19:27:20.931Z,80.46
2023-05-19T19:32:23.068Z,80.83
2023-05-19T19:37:24.795Z,81.60
2023-05-19T19:42:26.440Z,81.67
2023-05-19T19:47:28.128Z,81.80
2023-05-19T19:52:29.811Z,82.60
2023-05-19T19:57:34.140Z,82.06
2023-05-19T20:02:41.045Z,82.42
2023-05-19T20:07:47.428Z,82.72
2023-05-19T20:12:50.643Z,82.86
2023-05-19T20:17:52.396Z,83.87
2023-05-19T20:22:54.177Z,83.78
2023-05-19T20:27:55.822Z,83.75
2023-05-19T20:32:57.716Z,83.66
2023-05-19T20:37:59.510Z,83.89
2023-05-19T20:43:01.245Z,83.29
2023-05-19T20:48:03.817Z,84.65
2023-05-19T20:53:07.396Z,84.20
2023-05-19T20:58:09.136Z,84.84
2023-05-19T21:03:11.719Z,84.64
2023-05-19T21:08:13.556Z,84.42
2023-05-19T21:13:15.219Z,85.16
2023-05-19T21:18:16.902Z,85.11
2023-05-19T21:23:18.614Z,85.13
2023-05-19T21:28:20.332Z,85.76
2023-05-19T21:33:23.125Z,85.66
2023-05-19T21:38:25.009Z,85.14
2023-05-19T21:43:26.828Z,86.00
2023-05-19T21:48:28.484Z,87.15
2023-05-19T21:53:31.466Z,86.31
2023-05-19T21:58:34.470Z,86.35
2023-05-19T22:03:36.250Z,86.76
2023-05-19T22:08:37.958Z,86.49
2023-05-19T22:13:41.239Z,86.03
2023-05-19T22:18:43.348Z,85.33
2023-05-19T22:23:45.047Z,85.43
2023-05-19T22:28:46.685Z,85.84
2023-05-19T22:33:48.380Z,86.34
2023-05-19T22:38:50.129Z,85.97
2023-05-19T22:43:51.786Z,86.17
2023-05-19T22:48:53.426Z,85.94
2023-05-19T22:53:55.103Z,87.77
2023-05-19T22:58:56.771Z,86.61
2023-05-19T23:03:58.482Z,86.82
2023-05-19T23:09:04.482Z,86.71
2023-05-19T23:14:06.197Z,87.01
2023-05-19T23:19:07.951Z,87.99
2023-05-19T23:24:09.616Z,88.94
2023-05-19T23:29:13.078Z,88.33
2023-05-19T23:34:14.745Z,88.94
2023-05-19T23:39:16.397Z,90.23
2023-05-19T23:44:18.602Z,90.42
2023-05-19T23:49:20.450Z,90.24
2023-05-19T23:54:22.146Z,91.10
2023-05-19T23:59:23.792Z,93.68
